createdAt,value
2022-09-12T00:01:50.354Z,99489.00
2022-09-12T00:04:23.706Z,99486.34
2022-09-12T00:06:51.774Z,99487.09
2022-09-12T00:09:20.725Z,99491.19
2022-09-12T00:11:49.849Z,99479.00
2022-09-12T00:14:29.129Z,99485.53
2022-09-12T00:17:00.517Z,99494.97
2022-09-12T00:19:33.746Z,99483.47
2022-09-12T00:22:00.935Z,99487.94
2022-09-12T00:24:29.077Z,99497.97
2022-09-12T00:26:56.180Z,99483.69
2022-09-12T00:29:23.308Z,99490.03
2022-09-12T00:31:50.571Z,99483.78
2022-09-12T00:34:17.679Z,99489.34
2022-09-12T00:36:44.885Z,99498.97
2022-09-12T00:39:18.157Z,99499.66
2022-09-12T00:41:45.322Z,99499.63
2022-09-12T00:44:21.393Z,99503.97
2022-09-12T00:47:25.512Z,99501.47
2022-09-12T00:50:09.401Z,99506.16
2022-09-12T00:52:43.808Z,99504.44
2022-09-12T00:55:35.750Z,99507.84
2022-09-12T00:58:14.975Z,99505.03
2022-09-12T01:00:42.363Z,99503.22
2022-09-12T01:03:33.340Z,99506.66
2022-09-12T01:06:18.533Z,99505.28
2022-09-12T01:08:48.844Z,99503.16
2022-09-12T01:11:18.648Z,99501.25
2022-09-12T01:13:46.536Z,99504.97
2022-09-12T01:16:20.370Z,99503.91
2022-09-12T01:19:07.294Z,99502.81
2022-09-12T01:22:27.797Z,99503.91
2022-09-12T01:25:24.692Z,99503.44
2022-09-12T01:28:03.693Z,99505.97
2022-09-12T01:30:43.046Z,99496.22
2022-09-12T01:33:57.057Z,99499.66
2022-09-12T01:36:36.626Z,99502.38
2022-09-12T01:39:52.734Z,99498.53
2022-09-12T01:42:41.318Z,99496.38
2022-09-12T01:45:38.601Z,99501.50
2022-09-12T01:48:18.457Z,99488.50
2022-09-12T01:51:00.653Z,99504.59
2022-09-12T01:53:47.989Z,99496.38
2022-09-12T01:56:22.753Z,99498.28
2022-09-12T01:59:05.494Z,99489.25
2022-09-12T02:02:10.147Z,99483.44
2022-09-12T02:04:55.522Z,99492.84
2022-09-12T02:07:32.931Z,99484.38
2022-09-12T02:10:07.710Z,99487.13
2022-09-12T02:12:59.044Z,99490.13
2022-09-12T02:15:48.093Z,99490.31
2022-09-12T02:18:27.506Z,99493.81
2022-09-12T02:20:57.541Z,99490.47
2022-09-12T02:23:32.446Z,99490.63
2022-09-12T02:26:09.103Z,99495.78
2022-09-12T02:28:42.531Z,99500.50
2022-09-12T02:31:33.044Z,99495.47
2022-09-12T02:34:39.468Z,99503.22
2022-09-12T02:37:21.674Z,99507.69
2022-09-12T02:40:14.586Z,99496.38
2022-09-12T02:42:42.923Z,99492.31
2022-09-12T02:45:23.515Z,99493.66
2022-09-12T02:47:59.847Z,99504.72
2022-09-12T02:50:28.404Z,99504.72
2022-09-12T02:53:05.325Z,99498.50
2022-09-12T02:55:40.961Z,99498.06
2022-09-12T02:58:27.596Z,99502.94
2022-09-12T03:01:21.632Z,99504.13
2022-09-12T03:03:50.585Z,99500.72
2022-09-12T03:06:44.052Z,99511.78
2022-09-12T03:09:55.561Z,99510.84
2022-09-12T03:13:01.272Z,99507.47
2022-09-12T03:15:57.045Z,99506.69
2022-09-12T03:18:42.409Z,99508.34
2022-09-12T03:21:36.560Z,99512.25
2022-09-12T03:24:13.653Z,99507.66
2022-09-12T03:26:55.572Z,99508.06
2022-09-12T03:29:28.529Z,99514.75
2022-09-12T03:31:58.916Z,99513.81
2022-09-12T03:34:27.910Z,99517.41
2022-09-12T03:37:02.632Z,99519.13
2022-09-12T03:39:35.847Z,99522.97
2022-09-12T03:42:09.306Z,99526.81
2022-09-12T03:44:42.209Z,99528.84
2022-09-12T03:47:11.716Z,99530.50
2022-09-12T03:49:38.726Z,99534.00
2022-09-12T03:52:15.104Z,99527.84
2022-09-12T03:54:48.045Z,99529.13
2022-09-12T03:57:20.910Z,99522.84
2022-09-12T03:59:50.964Z,99528.16
2022-09-12T04:02:19.024Z,99529.91
2022-09-12T04:04:49.163Z,99533.31
2022-09-12T04:07:21.316Z,99532.47
2022-09-12T04:09:59.392Z,99528.75
2022-09-12T04:12:30.057Z,99536.53
2022-09-12T04:14:59.155Z,99538.88
2022-09-12T04:17:36.409Z,99544.94
2022-09-12T04:20:03.591Z,99541.53
2022-09-12T04:22:32.939Z,99534.34
2022-09-12T04:25:02.276Z,99539.63
2022-09-12T04:27:32.269Z,99541.44
2022-09-12T04:30:00.732Z,99537.09
2022-09-12T04:32:31.532Z,99542.38
2022-09-12T04:34:58.725Z,99543.25
2022-09-12T04:37:27.916Z,99534.69
2022-09-12T04:40:06.523Z,99543.59
2022-09-12T04:42:42.737Z,99543.41
2022-09-12T04:45:16.999Z,99548.72
2022-09-12T04:47:46.912Z,99546.06
2022-09-12T04:50:15.675Z,99551.22
2022-09-12T04:52:43.841Z,99554.03
2022-09-12T04:55:10.959Z,99550.66
2022-09-12T04:57:38.021Z,99552.47
2022-09-12T05:00:07.402Z,99552.91
2022-09-12T05:02:35.163Z,99548.72
2022-09-12T05:05:10.693Z,99559.88
2022-09-12T05:07:37.944Z,99553.56
2022-09-12T05:10:06.371Z,99558.50
2022-09-12T05:12:45.625Z,99568.22
2022-09-12T05:15:18.439Z,99556.81
2022-09-12T05:17:45.476Z,99566.31
2022-09-12T05:20:14.736Z,99568.22
2022-09-12T05:22:45.685Z,99573.75
2022-09-12T05:25:12.925Z,99581.66
2022-09-12T05:27:53.574Z,99583.38
2022-09-12T05:30:31.743Z,99584.16
2022-09-12T05:33:04.857Z,99590.06
2022-09-12T05:35:31.886Z,99591.47
2022-09-12T05:38:06.459Z,99596.84
2022-09-12T05:40:35.025Z,99594.88
2022-09-12T05:43:02.059Z,99596.78
2022-09-12T05:45:35.226Z,99603.56
2022-09-12T05:48:03.375Z,99598.63
2022-09-12T05:50:31.391Z,99601.00
2022-09-12T05:53:04.720Z,99598.00
2022-09-12T05:55:31.930Z,99601.97
2022-09-12T05:58:04.905Z,99596.50
2022-09-12T06:00:33.616Z,99595.22
2022-09-12T06:03:02.998Z,99600.78
2022-09-12T06:05:39.723Z,99599.09
2022-09-12T06:08:09.964Z,99600.63
2022-09-12T06:10:47.209Z,99600.38
2022-09-12T06:13:14.353Z,99610.66
2022-09-12T06:15:42.340Z,99604.41
2022-09-12T06:18:09.390Z,99596.44
2022-09-12T06:20:37.508Z,99599.75
2022-09-12T06:23:04.554Z,99596.84
2022-09-12T06:25:32.760Z,99594.09
2022-09-12T06:28:01.430Z,99602.66
2022-09-12T06:30:30.652Z,99603.00
2022-09-12T06:33:01.594Z,99601.03
2022-09-12T06:35:28.801Z,99603.16
2022-09-12T06:37:57.926Z,99601.44
2022-09-12T06:40:25.296Z,99602.03
2022-09-12T06:42:53.597Z,99606.91
2022-09-12T06:45:21.847Z,99610.81
2022-09-12T06:47:53.856Z,99605.75
2022-09-12T06:50:22.376Z,99602.59
2022-09-12T06:52:51.567Z,99608.41
2022-09-12T06:55:27.698Z,99609.19
2022-09-12T06:57:55.928Z,99604.88
2022-09-12T07:00:23.981Z,99611.53
2022-09-12T07:02:54.851Z,99614.13
2022-09-12T07:05:27.117Z,99616.25
2022-09-12T07:07:54.179Z,99617.38
2022-09-12T07:10:22.420Z,99608.91
2022-09-12T07:12:49.650Z,99615.25
2022-09-12T07:15:21.742Z,99615.56
2022-09-12T07:17:50.722Z,99613.09
2022-09-12T07:20:18.941Z,99620.91
2022-09-12T07:22:52.662Z,99617.25
2022-09-12T07:25:20.526Z,99630.81
2022-09-12T07:27:51.090Z,99621.84
2022-09-12T07:30:18.490Z,99622.97
2022-09-12T07:32:47.557Z,99625.47
2022-09-12T07:35:14.804Z,99632.31
2022-09-12T07:37:41.870Z,99633.72
2022-09-12T07:40:09.167Z,99644.59
2022-09-12T07:42:36.343Z,99639.19
2022-09-12T07:45:04.717Z,99625.94
2022-09-12T07:47:32.730Z,99634.97
2022-09-12T07:50:00.879Z,99638.66
2022-09-12T07:52:28.855Z,99644.50
2022-09-12T07:54:56.964Z,99648.88
2022-09-12T07:57:28.003Z,99642.25
2022-09-12T07:59:56.020Z,99642.69
2022-09-12T08:02:27.133Z,99641.75
2022-09-12T08:04:58.164Z,99640.97
2022-09-12T08:07:25.428Z,99641.88
2022-09-12T08:09:54.519Z,99645.25
2022-09-12T08:12:22.742Z,99642.44
2022-09-12T08:14:50.836Z,99641.94
2022-09-12T08:17:17.999Z,99636.69
2022-09-12T08:19:46.399Z,99644.53
2022-09-12T08:22:14.799Z,99656.50
2022-09-12T08:24:44.524Z,99652.00
2022-09-12T08:27:11.782Z,99643.53
2022-09-12T08:29:41.276Z,99641.19
2022-09-12T08:32:09.405Z,99646.13
2022-09-12T08:34:37.386Z,99649.31
2022-09-12T08:37:05.017Z,99651.56
2022-09-12T08:39:33.524Z,99653.56
2022-09-12T08:42:03.481Z,99646.75
2022-09-12T08:45:07.241Z,99647.09
2022-09-12T08:47:42.721Z,99639.13
2022-09-12T08:50:12.538Z,99637.94
2022-09-12T08:52:53.544Z,99643.66
2022-09-12T08:55:34.614Z,99640.31
2022-09-12T08:58:11.930Z,99639.72
2022-09-12T09:01:03.488Z,99641.44
2022-09-12T09:04:12.199Z,99637.84
2022-09-12T09:07:00.638Z,99631.00
2022-09-12T09:09:37.542Z,99624.34
2022-09-12T09:12:19.822Z,99628.66
2022-09-12T09:15:25.222Z,99637.25
2022-09-12T09:18:09.848Z,99642.84
2022-09-12T09:20:44.301Z,99647.59
2022-09-12T09:23:27.185Z,99633.22
2022-09-12T09:26:15.184Z,99639.16
2022-09-12T09:29:16.935Z,99635.91
2022-09-12T09:31:49.956Z,99633.41
2022-09-12T09:34:30.391Z,99637.19
2022-09-12T09:37:14.272Z,99641.38
2022-09-12T09:40:15.977Z,99638.59
2022-09-12T09:43:11.238Z,99642.75
2022-09-12T09:45:47.299Z,99637.94
2022-09-12T09:48:23.326Z,99650.78
2022-09-12T09:51:00.522Z,99640.06
2022-09-12T09:53:47.166Z,99637.25
2022-09-12T09:56:36.959Z,99641.69
2022-09-12T09:59:26.863Z,99639.56
2022-09-12T10:02:24.388Z,99638.84
2022-09-12T10:04:58.020Z,99642.56
2022-09-12T10:07:26.845Z,99633.22
2022-09-12T10:10:18.006Z,99636.28
2022-09-12T10:12:45.690Z,99624.78
2022-09-12T10:15:22.804Z,99627.47
2022-09-12T10:17:51.538Z,99626.28
2022-09-12T10:20:43.142Z,99635.56
2022-09-12T10:23:18.929Z,99632.66
2022-09-12T10:26:01.797Z,99635.84
2022-09-12T10:28:42.287Z,99637.28
2022-09-12T10:31:15.832Z,99635.91
2022-09-12T10:33:53.110Z,99623.66
2022-09-12T10:36:21.334Z,99622.72
2022-09-12T10:38:59.418Z,99619.13
2022-09-12T10:41:37.656Z,99624.66
2022-09-12T10:44:30.009Z,99615.03
2022-09-12T10:46:58.789Z,99620.09
2022-09-12T10:49:38.248Z,99628.03
2022-09-12T10:52:27.620Z,99616.44
2022-09-12T10:54:54.969Z,99613.88
2022-09-12T10:57:33.371Z,99613.50
2022-09-12T11:00:17.635Z,99608.47
2022-09-12T11:03:15.626Z,99610.28
2022-09-12T11:06:00.128Z,99611.63
2022-09-12T11:08:56.663Z,99618.66
2022-09-12T11:11:27.392Z,99610.16
2022-09-12T11:14:13.496Z,99608.53
2022-09-12T11:16:53.488Z,99617.06
2022-09-12T11:19:55.166Z,99610.78
2022-09-12T11:22:41.235Z,99613.94
2022-09-12T11:25:12.297Z,99608.16
2022-09-12T11:27:47.292Z,99613.31
2022-09-12T11:30:19.519Z,99600.28
2022-09-12T11:33:10.434Z,99600.88
2022-09-12T11:35:51.859Z,99603.00
2022-09-12T11:39:11.826Z,99600.84
2022-09-12T11:41:42.811Z,99603.88
2022-09-12T11:44:38.764Z,99600.53
2022-09-12T11:47:16.183Z,99608.00
2022-09-12T11:49:54.656Z,99604.66
2022-09-12T11:52:24.199Z,99611.16
2022-09-12T11:54:54.191Z,99610.00
2022-09-12T11:57:31.177Z,99603.56
2022-09-12T12:00:10.426Z,99610.81
2022-09-12T12:02:41.798Z,99597.75
2022-09-12T12:05:29.062Z,99608.19
2022-09-12T12:08:18.376Z,99593.72
2022-09-12T12:10:53.485Z,99599.59
2022-09-12T12:13:31.330Z,99600.31
2022-09-12T12:16:04.217Z,99601.94
2022-09-12T12:18:33.812Z,99612.16
2022-09-12T12:21:22.533Z,99598.56
2022-09-12T12:24:08.621Z,99606.53
2022-09-12T12:26:41.837Z,99603.41
2022-09-12T12:29:21.650Z,99611.75
2022-09-12T12:32:06.785Z,99615.63
2022-09-12T12:34:40.407Z,99605.88
2022-09-12T12:37:19.499Z,99612.91
2022-09-12T12:39:53.088Z,99615.44
2022-09-12T12:42:45.273Z,99609.81
2022-09-12T12:45:19.587Z,99610.81
2022-09-12T12:47:49.923Z,99612.75
2022-09-12T12:50:19.601Z,99609.28
2022-09-12T12:53:02.005Z,99609.66
2022-09-12T12:55:35.390Z,99615.13
2022-09-12T12:58:24.027Z,99601.91
2022-09-12T13:01:23.194Z,99608.38
2022-09-12T13:04:06.089Z,99611.50
2022-09-12T13:06:42.571Z,99610.75
2022-09-12T13:09:27.337Z,99610.41
2022-09-12T13:12:11.048Z,99604.75
2022-09-12T13:15:15.977Z,99605.22
2022-09-12T13:17:44.564Z,99599.56
2022-09-12T13:20:30.543Z,99598.66
2022-09-12T13:22:59.341Z,99599.91
2022-09-12T13:25:31.230Z,99596.81
2022-09-12T13:28:13.379Z,99595.72
2022-09-12T13:30:43.451Z,99592.03
2022-09-12T13:33:21.203Z,99587.03
2022-09-12T13:36:00.042Z,99581.00
2022-09-12T13:38:34.401Z,99582.00
2022-09-12T13:41:37.595Z,99576.94
2022-09-12T13:44:19.580Z,99572.59
2022-09-12T13:46:47.936Z,99556.47
2022-09-12T13:49:38.177Z,99557.06
2022-09-12T13:52:09.685Z,99566.22
2022-09-12T13:54:39.261Z,99563.41
2022-09-12T13:57:06.706Z,99560.03
2022-09-12T13:59:42.972Z,99562.63
2022-09-12T14:02:20.291Z,99553.22
2022-09-12T14:05:11.693Z,99555.63
2022-09-12T14:07:56.454Z,99549.13
2022-09-12T14:10:40.795Z,99549.81
2022-09-12T14:13:20.762Z,99550.94
2022-09-12T14:15:50.577Z,99550.94
2022-09-12T14:18:36.665Z,99549.66
2022-09-12T14:21:27.439Z,99552.06
2022-09-12T14:23:58.970Z,99552.16
2022-09-12T14:26:57.331Z,99548.06
2022-09-12T14:29:26.849Z,99547.69
2022-09-12T14:32:03.977Z,99545.50
2022-09-12T14:34:40.994Z,99544.97
2022-09-12T14:37:17.664Z,99557.16
2022-09-12T14:39:52.652Z,99551.44
2022-09-12T14:42:23.502Z,99546.25
2022-09-12T14:44:59.020Z,99550.94
2022-09-12T14:47:40.464Z,99553.19
2022-09-12T14:50:19.392Z,99546.13
2022-09-12T14:53:03.923Z,99549.47
2022-09-12T14:55:34.286Z,99557.84
2022-09-12T14:58:23.140Z,99546.41
2022-09-12T15:00:58.113Z,99546.22
2022-09-12T15:03:37.419Z,99543.09
2022-09-12T15:06:08.282Z,99534.13
2022-09-12T15:08:35.420Z,99535.78
2022-09-12T15:11:07.235Z,99533.78
2022-09-12T15:13:41.840Z,99532.59
2022-09-12T15:16:12.312Z,99541.91
2022-09-12T15:18:39.575Z,99536.53
2022-09-12T15:21:14.163Z,99539.72
2022-09-12T15:23:52.508Z,99547.28
2022-09-12T15:26:30.742Z,99531.44
2022-09-12T15:28:58.415Z,99535.44
2022-09-12T15:31:26.589Z,99539.75
2022-09-12T15:33:55.287Z,99536.53
2022-09-12T15:36:24.031Z,99533.50
2022-09-12T15:38:53.023Z,99541.88
2022-09-12T15:41:30.773Z,99535.00
2022-09-12T15:43:58.289Z,99531.22
2022-09-12T15:46:25.334Z,99533.59
2022-09-12T15:48:52.516Z,99535.66
2022-09-12T15:51:25.559Z,99544.03
2022-09-12T15:53:53.855Z,99533.34
2022-09-12T15:56:23.416Z,99533.59
2022-09-12T15:58:59.254Z,99536.63
2022-09-12T16:01:29.244Z,99534.28
2022-09-12T16:03:57.845Z,99541.09
2022-09-12T16:06:36.310Z,99540.78
2022-09-12T16:09:06.329Z,99542.69
2022-09-12T16:11:40.310Z,99533.94
2022-09-12T16:14:09.080Z,99531.97
2022-09-12T16:16:38.248Z,99527.38
2022-09-12T16:19:06.819Z,99527.09
2022-09-12T16:21:36.928Z,99529.22
2022-09-12T16:24:05.608Z,99524.94
2022-09-12T16:26:34.701Z,99532.78
2022-09-12T16:29:03.925Z,99534.47
2022-09-12T16:31:31.406Z,99527.97
2022-09-12T16:34:01.114Z,99529.63
2022-09-12T16:36:28.256Z,99534.38
2022-09-12T16:39:02.130Z,99526.56
2022-09-12T16:41:30.174Z,99525.69
2022-09-12T16:43:59.303Z,99528.56
2022-09-12T16:46:31.304Z,99522.03
2022-09-12T16:49:00.119Z,99521.66
2022-09-12T16:51:37.311Z,99528.41
2022-09-12T16:54:05.535Z,99525.34
2022-09-12T16:56:33.497Z,99526.59
2022-09-12T16:59:01.563Z,99519.72
2022-09-12T17:01:29.641Z,99514.28
2022-09-12T17:03:59.266Z,99521.19
2022-09-12T17:06:49.677Z,99519.16
2022-09-12T17:09:18.892Z,99521.59
2022-09-12T17:11:48.105Z,99528.81
2022-09-12T17:14:15.120Z,99530.66
2022-09-12T17:16:51.362Z,99524.94
2022-09-12T17:19:29.981Z,99527.53
2022-09-12T17:21:59.163Z,99530.63
2022-09-12T17:24:27.284Z,99533.44
2022-09-12T17:26:57.546Z,99535.63
2022-09-12T17:29:28.867Z,99538.53
2022-09-12T17:32:05.216Z,99534.06
2022-09-12T17:34:32.285Z,99529.56
2022-09-12T17:36:59.231Z,99538.94
2022-09-12T17:39:36.530Z,99539.47
2022-09-12T17:42:06.828Z,99538.19
2022-09-12T17:44:36.230Z,99544.41
2022-09-12T17:47:15.328Z,99544.91
2022-09-12T17:49:45.233Z,99546.25
2022-09-12T17:52:12.727Z,99542.44
2022-09-12T17:54:40.765Z,99541.53
2022-09-12T17:57:10.113Z,99545.81
2022-09-12T17:59:46.389Z,99539.97
2022-09-12T18:02:14.609Z,99544.00
2022-09-12T18:04:48.856Z,99548.94
2022-09-12T18:07:19.503Z,99553.75
2022-09-12T18:09:52.281Z,99559.94
2022-09-12T18:12:20.665Z,99552.31
2022-09-12T18:14:54.914Z,99555.75
2022-09-12T18:17:22.237Z,99557.50
2022-09-12T18:19:53.827Z,99555.97
2022-09-12T18:22:21.521Z,99552.25
2022-09-12T18:25:02.739Z,99562.72
2022-09-12T18:27:31.255Z,99563.59
2022-09-12T18:30:19.590Z,99556.78
2022-09-12T18:32:51.545Z,99562.75
2022-09-12T18:35:19.098Z,99560.84
2022-09-12T18:37:51.737Z,99561.78
2022-09-12T18:40:24.215Z,99566.25
2022-09-12T18:42:52.408Z,99559.81
2022-09-12T18:45:19.665Z,99562.88
2022-09-12T18:47:54.118Z,99561.66
2022-09-12T18:50:25.058Z,99559.28
2022-09-12T18:52:59.756Z,99559.03
2022-09-12T18:55:28.326Z,99561.88
2022-09-12T18:57:57.867Z,99555.19
2022-09-12T19:00:31.495Z,99558.09
2022-09-12T19:03:12.871Z,99549.94
2022-09-12T19:05:40.288Z,99559.28
2022-09-12T19:08:08.942Z,99565.28
2022-09-12T19:10:37.257Z,99560.56
2022-09-12T19:13:12.685Z,99557.06
2022-09-12T19:15:46.988Z,99553.88
2022-09-12T19:18:17.417Z,99563.44
2022-09-12T19:20:50.613Z,99560.22
2022-09-12T19:23:17.894Z,99562.66
2022-09-12T19:25:55.369Z,99561.75
2022-09-12T19:28:22.716Z,99560.47
2022-09-12T19:30:50.073Z,99548.31
2022-09-12T19:33:24.868Z,99557.13
2022-09-12T19:35:53.070Z,99550.72
2022-09-12T19:38:20.379Z,99551.81
2022-09-12T19:41:15.128Z,99552.53
2022-09-12T19:43:45.694Z,99549.72
2022-09-12T19:46:21.637Z,99548.94
2022-09-12T19:48:58.283Z,99544.56
2022-09-12T19:51:25.846Z,99548.16
2022-09-12T19:53:53.671Z,99544.72
2022-09-12T19:56:24.891Z,99546.09
2022-09-12T19:58:56.345Z,99538.94
2022-09-12T20:01:28.601Z,99548.84
2022-09-12T20:03:58.543Z,99540.38
2022-09-12T20:06:33.824Z,99545.97
2022-09-12T20:09:09.890Z,99538.72
2022-09-12T20:11:43.915Z,99538.00
2022-09-12T20:14:13.779Z,99530.66
2022-09-12T20:16:41.801Z,99533.63
2022-09-12T20:19:10.858Z,99539.25
2022-09-12T20:21:53.302Z,99542.53
2022-09-12T20:24:25.852Z,99537.38
2022-09-12T20:26:57.780Z,99531.94
2022-09-12T20:29:24.991Z,99529.59
2022-09-12T20:31:52.227Z,99528.44
2022-09-12T20:34:25.142Z,99524.28
2022-09-12T20:36:52.321Z,99527.59
2022-09-12T20:39:23.680Z,99521.25
2022-09-12T20:41:51.919Z,99516.53
2022-09-12T20:44:20.458Z,99524.34
2022-09-12T20:46:51.749Z,99527.59
2022-09-12T20:49:18.982Z,99522.13
2022-09-12T20:55:36.355Z,99525.41
2022-09-12T20:58:06.327Z,99518.81
2022-09-12T21:00:34.472Z,99519.50
2022-09-12T21:03:01.678Z,99525.50
2022-09-12T21:05:48.931Z,99527.22
2022-09-12T21:08:51.358Z,99527.03
2022-09-12T21:11:27.218Z,99528.22
2022-09-12T21:14:03.667Z,99527.94
2022-09-12T21:16:43.983Z,99526.09
2022-09-12T21:19:14.186Z,99528.78
2022-09-12T21:21:41.286Z,99529.28
2022-09-12T21:24:40.003Z,99521.41
2022-09-12T21:27:21.051Z,99521.59
2022-09-12T21:29:55.709Z,99518.31
2022-09-12T21:32:35.098Z,99523.13
2022-09-12T21:35:09.334Z,99528.28
2022-09-12T21:37:36.614Z,99515.16
2022-09-12T21:40:10.293Z,99520.47
2022-09-12T21:42:50.747Z,99523.97
2022-09-12T21:45:24.067Z,99518.69
2022-09-12T21:47:53.296Z,99509.53
2022-09-12T21:50:49.750Z,99517.47
2022-09-12T21:53:17.914Z,99515.59
2022-09-12T21:56:07.251Z,99517.66
2022-09-12T21:58:53.374Z,99519.50
2022-09-12T22:01:22.508Z,99517.19
2022-09-12T22:03:57.588Z,99509.56
2022-09-12T22:06:28.537Z,99513.16
2022-09-12T22:09:01.730Z,99512.50
2022-09-12T22:11:33.276Z,99505.81
2022-09-12T22:14:00.238Z,99505.81
2022-09-12T22:16:59.626Z,99502.81
2022-09-12T22:19:27.042Z,99500.38
2022-09-12T22:22:13.929Z,99499.41
2022-09-12T22:24:43.032Z,99509.97
2022-09-12T22:27:10.257Z,99508.31
2022-09-12T22:29:39.195Z,99502.34
2022-09-12T22:32:16.585Z,99500.16
2022-09-12T22:34:43.707Z,99495.94
2022-09-12T22:37:13.398Z,99505.56
2022-09-12T22:39:40.882Z,99505.84
2022-09-12T22:42:09.991Z,99503.13
2022-09-12T22:44:37.096Z,99499.78
2022-09-12T22:47:04.250Z,99501.94
2022-09-12T22:49:31.390Z,99496.13
2022-09-12T22:52:04.335Z,99504.13
2022-09-12T22:54:33.614Z,99495.81
2022-09-12T22:57:02.076Z,99498.69
2022-09-12T22:59:35.216Z,99488.69
2022-09-12T23:02:03.851Z,99486.00
2022-09-12T23:05:03.379Z,99484.28
2022-09-12T23:07:42.859Z,99484.41
2022-09-12T23:10:29.687Z,99485.56
2022-09-12T23:13:02.862Z,99475.25
2022-09-12T23:15:47.150Z,99482.28
2022-09-12T23:18:15.193Z,99481.50
2022-09-12T23:20:43.169Z,99478.94
2022-09-12T23:23:12.201Z,99469.88
2022-09-12T23:25:47.250Z,99477.94
2022-09-12T23:28:18.317Z,99477.28
2022-09-12T23:31:13.610Z,99475.47
2022-09-12T23:34:06.145Z,99472.53
2022-09-12T23:36:34.692Z,99469.09
2022-09-12T23:39:07.969Z,99464.09
2022-09-12T23:41:59.624Z,99470.25
2022-09-12T23:44:37.639Z,99456.13
2022-09-12T23:47:05.722Z,99468.00
2022-09-12T23:49:56.277Z,99466.00
2022-09-12T23:52:39.651Z,99461.53
2022-09-12T23:55:08.211Z,99457.84
2022-09-12T23:57:42.541Z,99460.91
